アダック島 の空港の天気 - METARとTAF

アダック空港 ( PADK / ADK ) - アメリカ アラスカ州アダック島
飛行場実況気象(Metar)
観測時間04/25 00:56 AKDT (04/25 08:56 UTC)
風向・風速東 8m/s
視程10km以上
天気現象
全天の8割程度の雲 雲底高度 760m
全天の8割程度の雲 雲底高度 910m
全天を覆う雲 雲底高度 1070m
気温2.8℃
湿度76%
気圧1024.7hPa
METARPADK 250856Z AUTO 09015KT 10SM BKN025 BKN030 OVC035 03/M01 A3026 RMK AO2 SLP247 60000 T00281011 51012
過去の天気等 Google飛行場航空写真 Wunderground天気予報

過去48時間のMETAR

飛行場予報(TAF)
データがありません